SCO15OP EGPH-EGJJ
Flight info
| Callsign | SCO15OP |
|---|---|
| Flight time | 1h 18m |
| Altitude | 37000 |
| Route | GOSAM P600 FENIK L612 NAVSO DCT ADZOP DCT EGTOC DCT NOKIN N862 KARNO/N0448F380 DCT ALHUP DCT ABWIV DCT PACSE DCT TONQU/N0379F230 N862 SKERY |
| Aircraft | B738/M-SDE2E3FGHIRWXY/LB1 |
Departure
| Time | 2026-05-07 20:23 |
|---|---|
| Airport | Edinburgh Airport (EGPH) |
Arrival
| Time | 2026-05-07 21:41 |
|---|---|
| Airport | Jersey Airport (EGJJ) |
| Time | Latitude | Longitude | Altitude | Speed | Heading |
|---|---|---|---|---|---|
| 2026-05-07 19:32 | 55.94752 | -3.36614 | 115 ft | 0 kts | 89° |
| 2026-05-07 20:10 | 55.94751 | -3.36634 | 111 ft | 4 kts | 86° |
| 2026-05-07 20:11 | 55.94748 | -3.36680 | 112 ft | 4 kts | 71° |
| 2026-05-07 20:11 | 55.94736 | -3.36719 | 114 ft | 4 kts | 33° |
| 2026-05-07 20:11 | 55.94722 | -3.36728 | 113 ft | 0 kts | 345° |
| 2026-05-07 20:17 | 55.94730 | -3.36731 | 113 ft | 2 kts | 345° |
| 2026-05-07 20:17 | 55.94751 | -3.36747 | 115 ft | 4 kts | 333° |
| 2026-05-07 20:18 | 55.94785 | -3.36771 | 114 ft | 7 kts | 349° |
| 2026-05-07 20:18 | 55.94838 | -3.36778 | 114 ft | 8 kts | 358° |
| 2026-05-07 20:18 | 55.94894 | -3.36803 | 114 ft | 8 kts | 330° |
| 2026-05-07 20:18 | 55.94948 | -3.36814 | 113 ft | 8 kts | 27° |
| 2026-05-07 20:19 | 55.94982 | -3.36733 | 115 ft | 9 kts | 59° |
| 2026-05-07 20:19 | 55.95019 | -3.36622 | 112 ft | 12 kts | 59° |
| 2026-05-07 20:19 | 55.95062 | -3.36494 | 112 ft | 12 kts | 59° |
| 2026-05-07 20:19 | 55.95105 | -3.36368 | 114 ft | 12 kts | 59° |
| 2026-05-07 20:20 | 55.95146 | -3.36247 | 113 ft | 11 kts | 59° |
| 2026-05-07 20:20 | 55.95186 | -3.36127 | 112 ft | 11 kts | 59° |
| 2026-05-07 20:20 | 55.95224 | -3.36014 | 114 ft | 11 kts | 58° |
| 2026-05-07 20:20 | 55.95263 | -3.35899 | 111 ft | 12 kts | 59° |
| 2026-05-07 20:21 | 55.95311 | -3.35758 | 113 ft | 14 kts | 59° |
| 2026-05-07 20:21 | 55.95362 | -3.35607 | 115 ft | 14 kts | 59° |
| 2026-05-07 20:21 | 55.95411 | -3.35465 | 113 ft | 12 kts | 58° |
| 2026-05-07 20:21 | 55.95480 | -3.35417 | 115 ft | 12 kts | 331° |
| 2026-05-07 20:22 | 55.95552 | -3.35500 | 110 ft | 13 kts | 323° |
| 2026-05-07 20:22 | 55.95545 | -3.35642 | 112 ft | 13 kts | 238° |
| 2026-05-07 20:22 | 55.95426 | -3.35997 | 108 ft | 73 kts | 239° |
| 2026-05-07 20:22 | 55.95002 | -3.37236 | 143 ft | 155 kts | 238° |
| 2026-05-07 20:23 | 55.94409 | -3.39119 | 831 ft | 178 kts | 240° |
| 2026-05-07 20:23 | 55.93811 | -3.40948 | 2271 ft | 170 kts | 235° |
| 2026-05-07 20:23 | 55.93155 | -3.42783 | 3065 ft | 185 kts | 234° |
| 2026-05-07 20:23 | 55.92412 | -3.44860 | 3343 ft | 213 kts | 235° |
| 2026-05-07 20:24 | 55.91568 | -3.47243 | 3650 ft | 239 kts | 236° |
| 2026-05-07 20:24 | 55.90685 | -3.49817 | 4316 ft | 247 kts | 240° |
| 2026-05-07 20:24 | 55.90208 | -3.52777 | 5140 ft | 252 kts | 258° |
| 2026-05-07 20:24 | 55.89933 | -3.55857 | 5703 ft | 252 kts | 258° |
| 2026-05-07 20:25 | 55.89639 | -3.58938 | 6366 ft | 254 kts | 257° |
| 2026-05-07 20:25 | 55.89332 | -3.62068 | 7182 ft | 257 kts | 257° |
| 2026-05-07 20:25 | 55.89020 | -3.65211 | 7977 ft | 262 kts | 257° |
| 2026-05-07 20:25 | 55.88700 | -3.68424 | 8822 ft | 265 kts | 257° |
| 2026-05-07 20:26 | 55.88372 | -3.71680 | 9654 ft | 269 kts | 257° |
| 2026-05-07 20:26 | 55.88035 | -3.74992 | 10391 ft | 279 kts | 257° |
| 2026-05-07 20:26 | 55.87671 | -3.78555 | 10618 ft | 305 kts | 257° |
| 2026-05-07 20:26 | 55.87151 | -3.82317 | 11046 ft | 319 kts | 243° |
| 2026-05-07 20:27 | 55.85757 | -3.85354 | 11784 ft | 321 kts | 217° |
| 2026-05-07 20:27 | 55.83759 | -3.87125 | 12656 ft | 325 kts | 198° |
| 2026-05-07 20:27 | 55.81503 | -3.87640 | 13510 ft | 332 kts | 178° |
| 2026-05-07 20:27 | 55.79184 | -3.86979 | 14148 ft | 345 kts | 171° |
| 2026-05-07 20:28 | 55.76899 | -3.86079 | 15452 ft | 330 kts | 170° |
| 2026-05-07 20:28 | 55.74654 | -3.85146 | 16297 ft | 336 kts | 170° |
| 2026-05-07 20:28 | 55.72328 | -3.84180 | 16801 ft | 349 kts | 170° |
| 2026-05-07 20:28 | 55.69937 | -3.83197 | 17444 ft | 357 kts | 170° |
| 2026-05-07 20:29 | 55.67506 | -3.82208 | 18225 ft | 359 kts | 170° |
| 2026-05-07 20:29 | 55.65069 | -3.81227 | 19043 ft | 360 kts | 170° |
| 2026-05-07 20:29 | 55.62617 | -3.80251 | 19727 ft | 365 kts | 168° |
| 2026-05-07 20:29 | 55.60069 | -3.79244 | 19993 ft | 380 kts | 169° |
| 2026-05-07 20:30 | 55.57568 | -3.78254 | 21423 ft | 358 kts | 170° |
| 2026-05-07 20:30 | 55.55158 | -3.77295 | 22352 ft | 357 kts | 170° |
| 2026-05-07 20:30 | 55.52678 | -3.76327 | 22578 ft | 373 kts | 170° |
| 2026-05-07 20:30 | 55.50108 | -3.75331 | 22933 ft | 383 kts | 170° |
| 2026-05-07 20:31 | 55.47491 | -3.74315 | 23495 ft | 386 kts | 170° |
| 2026-05-07 20:31 | 55.44858 | -3.73292 | 24104 ft | 388 kts | 170° |
| 2026-05-07 20:31 | 55.42215 | -3.72264 | 24666 ft | 391 kts | 170° |
| 2026-05-07 20:31 | 55.39546 | -3.71228 | 25171 ft | 395 kts | 170° |
| 2026-05-07 20:32 | 55.36851 | -3.70183 | 25661 ft | 398 kts | 170° |
| 2026-05-07 20:32 | 55.34143 | -3.69134 | 26188 ft | 400 kts | 169° |
| 2026-05-07 20:32 | 55.31449 | -3.68092 | 26657 ft | 403 kts | 169° |
| 2026-05-07 20:32 | 55.28661 | -3.67016 | 27099 ft | 406 kts | 169° |
| 2026-05-07 20:33 | 55.25916 | -3.65958 | 27565 ft | 409 kts | 169° |
| 2026-05-07 20:33 | 55.23128 | -3.64884 | 28001 ft | 412 kts | 169° |
| 2026-05-07 20:33 | 55.20309 | -3.63804 | 28254 ft | 417 kts | 169° |
| 2026-05-07 20:33 | 55.17479 | -3.62717 | 28848 ft | 415 kts | 169° |
| 2026-05-07 20:34 | 55.14660 | -3.61634 | 29303 ft | 416 kts | 169° |
| 2026-05-07 20:34 | 55.11817 | -3.60544 | 29615 ft | 420 kts | 169° |
| 2026-05-07 20:34 | 55.08990 | -3.59463 | 29956 ft | 423 kts | 169° |
| 2026-05-07 20:34 | 55.06109 | -3.58363 | 30314 ft | 425 kts | 169° |
| 2026-05-07 20:35 | 55.03215 | -3.57259 | 30668 ft | 426 kts | 169° |
| 2026-05-07 20:35 | 55.00326 | -3.56159 | 31190 ft | 423 kts | 169° |
| 2026-05-07 20:35 | 54.97460 | -3.55069 | 31726 ft | 420 kts | 168° |
| 2026-05-07 20:35 | 54.94607 | -3.53986 | 32156 ft | 419 kts | 168° |
| 2026-05-07 20:36 | 54.91760 | -3.52906 | 32537 ft | 419 kts | 168° |
| 2026-05-07 20:36 | 54.88908 | -3.51827 | 32957 ft | 418 kts | 168° |
| 2026-05-07 20:36 | 54.86076 | -3.50756 | 33449 ft | 415 kts | 168° |
| 2026-05-07 20:36 | 54.83259 | -3.49694 | 33869 ft | 414 kts | 168° |
| 2026-05-07 20:37 | 54.80449 | -3.48636 | 34244 ft | 413 kts | 168° |
| 2026-05-07 20:37 | 54.77638 | -3.47578 | 34518 ft | 415 kts | 168° |
| 2026-05-07 20:37 | 54.74805 | -3.46514 | 34791 ft | 417 kts | 168° |
| 2026-05-07 20:37 | 54.71970 | -3.45451 | 35101 ft | 417 kts | 168° |
| 2026-05-07 20:38 | 54.69126 | -3.44387 | 35392 ft | 418 kts | 168° |
| 2026-05-07 20:38 | 54.66275 | -3.43322 | 35681 ft | 419 kts | 168° |
| 2026-05-07 20:38 | 54.63425 | -3.42258 | 35930 ft | 420 kts | 168° |
| 2026-05-07 20:38 | 54.60561 | -3.41189 | 36153 ft | 423 kts | 169° |
| 2026-05-07 20:39 | 54.57678 | -3.40115 | 36413 ft | 424 kts | 169° |
| 2026-05-07 20:39 | 54.54795 | -3.39043 | 36681 ft | 425 kts | 169° |
| 2026-05-07 20:39 | 54.51906 | -3.37965 | 36967 ft | 424 kts | 169° |
| 2026-05-07 20:40 | 54.46105 | -3.35819 | 36988 ft | 424 kts | 169° |
| 2026-05-07 20:40 | 54.40413 | -3.33715 | 36982 ft | 415 kts | 169° |
| 2026-05-07 20:41 | 54.34764 | -3.31634 | 36998 ft | 416 kts | 169° |
| 2026-05-07 20:41 | 54.29092 | -3.29551 | 37008 ft | 417 kts | 169° |
| 2026-05-07 20:42 | 54.23407 | -3.27467 | 37003 ft | 419 kts | 169° |
| 2026-05-07 20:42 | 54.17687 | -3.25432 | 36998 ft | 420 kts | 172° |
| 2026-05-07 20:43 | 54.11881 | -3.24464 | 37004 ft | 420 kts | 176° |
| 2026-05-07 20:43 | 54.06052 | -3.23657 | 37001 ft | 420 kts | 175° |
| 2026-05-07 20:44 | 54.00230 | -3.22728 | 37010 ft | 421 kts | 174° |
| 2026-05-07 20:44 | 53.94497 | -3.20807 | 37009 ft | 421 kts | 168° |
| 2026-05-07 20:45 | 53.88787 | -3.18533 | 37010 ft | 422 kts | 168° |
| 2026-05-07 20:45 | 53.83102 | -3.16309 | 37008 ft | 422 kts | 168° |
| 2026-05-07 20:46 | 53.77370 | -3.14125 | 37013 ft | 423 kts | 168° |
| 2026-05-07 20:46 | 53.71631 | -3.11965 | 37020 ft | 422 kts | 168° |
| 2026-05-07 20:47 | 53.65855 | -3.09799 | 37019 ft | 423 kts | 168° |
| 2026-05-07 20:47 | 53.60144 | -3.07661 | 37016 ft | 423 kts | 168° |
| 2026-05-07 20:48 | 53.54392 | -3.05514 | 37022 ft | 423 kts | 169° |
| 2026-05-07 20:48 | 53.48640 | -3.03374 | 37015 ft | 423 kts | 169° |
| 2026-05-07 20:49 | 53.42888 | -3.01239 | 37018 ft | 423 kts | 169° |
| 2026-05-07 20:49 | 53.37135 | -2.99108 | 37021 ft | 423 kts | 169° |
| 2026-05-07 20:50 | 53.31380 | -2.96984 | 37018 ft | 423 kts | 169° |
| 2026-05-07 20:50 | 53.25626 | -2.94864 | 37017 ft | 424 kts | 169° |
| 2026-05-07 20:51 | 53.19872 | -2.92751 | 37018 ft | 424 kts | 169° |
| 2026-05-07 20:51 | 53.14108 | -2.90641 | 37019 ft | 424 kts | 169° |
| 2026-05-07 20:52 | 53.08328 | -2.88630 | 37013 ft | 424 kts | 174° |
| 2026-05-07 20:52 | 53.02461 | -2.88641 | 37026 ft | 422 kts | 185° |
| 2026-05-07 20:53 | 52.96596 | -2.89224 | 37016 ft | 423 kts | 184° |
| 2026-05-07 20:53 | 52.90719 | -2.89700 | 37018 ft | 423 kts | 184° |
| 2026-05-07 20:54 | 52.84871 | -2.90726 | 37024 ft | 422 kts | 189° |
| 2026-05-07 20:54 | 52.79069 | -2.92220 | 37021 ft | 423 kts | 189° |
| 2026-05-07 20:55 | 52.73243 | -2.93627 | 37017 ft | 423 kts | 189° |
| 2026-05-07 20:55 | 52.67386 | -2.94603 | 37029 ft | 424 kts | 184° |
| 2026-05-07 20:56 | 52.61483 | -2.95021 | 37026 ft | 425 kts | 184° |
| 2026-05-07 20:56 | 52.55575 | -2.95427 | 37029 ft | 425 kts | 184° |
| 2026-05-07 20:57 | 52.49670 | -2.95882 | 37024 ft | 425 kts | 184° |
| 2026-05-07 20:57 | 52.44758 | -2.96282 | 37031 ft | 426 kts | 184° |
| 2026-05-07 20:58 | 52.38841 | -2.96770 | 37026 ft | 426 kts | 184° |
| 2026-05-07 20:58 | 52.32920 | -2.97258 | 37022 ft | 426 kts | 184° |
| 2026-05-07 20:59 | 52.27004 | -2.97742 | 37036 ft | 425 kts | 184° |
| 2026-05-07 20:59 | 52.21091 | -2.98224 | 37032 ft | 425 kts | 184° |
| 2026-05-07 21:00 | 52.15191 | -2.98704 | 37040 ft | 425 kts | 184° |
| 2026-05-07 21:00 | 52.09291 | -2.99182 | 37032 ft | 424 kts | 184° |
| 2026-05-07 21:01 | 52.03399 | -2.99661 | 37030 ft | 424 kts | 185° |
| 2026-05-07 21:01 | 51.97507 | -3.00135 | 37045 ft | 424 kts | 185° |
| 2026-05-07 21:02 | 51.91611 | -3.00611 | 37042 ft | 424 kts | 185° |
| 2026-05-07 21:02 | 51.85732 | -3.01269 | 37048 ft | 423 kts | 188° |
| 2026-05-07 21:03 | 51.79898 | -3.02503 | 37048 ft | 423 kts | 189° |
| 2026-05-07 21:03 | 51.74051 | -3.03791 | 37049 ft | 424 kts | 189° |
| 2026-05-07 21:04 | 51.68197 | -3.05035 | 37048 ft | 425 kts | 189° |
| 2026-05-07 21:04 | 51.62327 | -3.06258 | 37049 ft | 426 kts | 189° |
| 2026-05-07 21:05 | 51.56446 | -3.07475 | 37046 ft | 426 kts | 189° |
| 2026-05-07 21:05 | 51.50566 | -3.08690 | 37044 ft | 426 kts | 189° |
| 2026-05-07 21:06 | 51.44688 | -3.09901 | 37047 ft | 426 kts | 189° |
| 2026-05-07 21:06 | 51.38816 | -3.11108 | 37049 ft | 425 kts | 189° |
| 2026-05-07 21:07 | 51.32955 | -3.12311 | 37046 ft | 424 kts | 189° |
| 2026-05-07 21:07 | 51.27141 | -3.13501 | 37043 ft | 424 kts | 189° |
| 2026-05-07 21:08 | 51.21294 | -3.14699 | 37046 ft | 424 kts | 189° |
| 2026-05-07 21:08 | 51.15450 | -3.15893 | 37044 ft | 424 kts | 189° |
| 2026-05-07 21:09 | 51.09604 | -3.17083 | 37045 ft | 423 kts | 189° |
| 2026-05-07 21:09 | 51.03762 | -3.18269 | 37042 ft | 423 kts | 189° |
| 2026-05-07 21:10 | 50.97919 | -3.19451 | 37050 ft | 423 kts | 189° |
| 2026-05-07 21:10 | 50.92083 | -3.20630 | 37048 ft | 423 kts | 189° |
| 2026-05-07 21:11 | 50.86248 | -3.21807 | 37042 ft | 423 kts | 189° |
| 2026-05-07 21:11 | 50.83307 | -3.22399 | 36618 ft | 427 kts | 189° |
| 2026-05-07 21:11 | 50.77442 | -3.23577 | 35470 ft | 425 kts | 189° |
| 2026-05-07 21:12 | 50.74506 | -3.24166 | 34821 ft | 426 kts | 189° |
| 2026-05-07 21:12 | 50.71564 | -3.24754 | 34154 ft | 427 kts | 189° |
| 2026-05-07 21:12 | 50.68632 | -3.25339 | 33660 ft | 423 kts | 189° |
| 2026-05-07 21:12 | 50.65723 | -3.25919 | 33176 ft | 419 kts | 189° |
| 2026-05-07 21:13 | 50.62848 | -3.26491 | 32697 ft | 415 kts | 189° |
| 2026-05-07 21:13 | 50.59997 | -3.27058 | 32230 ft | 411 kts | 189° |
| 2026-05-07 21:13 | 50.57169 | -3.27620 | 31760 ft | 408 kts | 189° |
| 2026-05-07 21:13 | 50.54362 | -3.28179 | 31292 ft | 404 kts | 189° |
| 2026-05-07 21:14 | 50.51585 | -3.28731 | 30835 ft | 401 kts | 189° |
| 2026-05-07 21:14 | 50.48827 | -3.29277 | 30379 ft | 398 kts | 189° |
| 2026-05-07 21:14 | 50.46093 | -3.29818 | 29924 ft | 394 kts | 189° |
| 2026-05-07 21:14 | 50.43382 | -3.30354 | 29463 ft | 391 kts | 189° |
| 2026-05-07 21:15 | 50.40729 | -3.30863 | 29009 ft | 388 kts | 187° |
| 2026-05-07 21:15 | 50.38041 | -3.30906 | 28543 ft | 387 kts | 178° |
| 2026-05-07 21:15 | 50.35390 | -3.30254 | 28086 ft | 386 kts | 169° |
| 2026-05-07 21:15 | 50.32789 | -3.29269 | 27633 ft | 383 kts | 168° |
| 2026-05-07 21:16 | 50.30220 | -3.28281 | 27180 ft | 379 kts | 168° |
| 2026-05-07 21:16 | 50.27663 | -3.27322 | 26726 ft | 376 kts | 168° |
| 2026-05-07 21:16 | 50.25121 | -3.26392 | 26274 ft | 373 kts | 168° |
| 2026-05-07 21:16 | 50.22603 | -3.25480 | 25833 ft | 371 kts | 169° |
| 2026-05-07 21:17 | 50.20102 | -3.24574 | 25381 ft | 368 kts | 168° |
| 2026-05-07 21:17 | 50.17616 | -3.23672 | 24937 ft | 365 kts | 168° |
| 2026-05-07 21:17 | 50.15151 | -3.22779 | 24496 ft | 362 kts | 168° |
| 2026-05-07 21:17 | 50.12704 | -3.21891 | 24051 ft | 360 kts | 168° |
| 2026-05-07 21:18 | 50.10274 | -3.21011 | 23615 ft | 358 kts | 168° |
| 2026-05-07 21:18 | 50.07858 | -3.20136 | 23184 ft | 355 kts | 168° |
| 2026-05-07 21:18 | 50.05459 | -3.19269 | 22743 ft | 353 kts | 168° |
| 2026-05-07 21:18 | 50.03077 | -3.18409 | 22321 ft | 351 kts | 168° |
| 2026-05-07 21:19 | 50.00710 | -3.17536 | 21893 ft | 349 kts | 166° |
| 2026-05-07 21:19 | 49.98509 | -3.15968 | 21464 ft | 350 kts | 149° |
| 2026-05-07 21:19 | 49.96485 | -3.13887 | 21056 ft | 347 kts | 148° |
| 2026-05-07 21:19 | 49.94486 | -3.11796 | 20636 ft | 346 kts | 148° |
| 2026-05-07 21:20 | 49.92496 | -3.09716 | 20222 ft | 344 kts | 148° |
| 2026-05-07 21:20 | 49.90515 | -3.07659 | 19805 ft | 342 kts | 148° |
| 2026-05-07 21:20 | 49.88543 | -3.05623 | 19386 ft | 339 kts | 148° |
| 2026-05-07 21:20 | 49.86579 | -3.03608 | 18971 ft | 337 kts | 149° |
| 2026-05-07 21:21 | 49.84652 | -3.01638 | 18603 ft | 335 kts | 149° |
| 2026-05-07 21:21 | 49.82716 | -2.99665 | 18364 ft | 331 kts | 149° |
| 2026-05-07 21:21 | 49.80763 | -2.97678 | 18116 ft | 334 kts | 149° |
| 2026-05-07 21:21 | 49.78811 | -2.95698 | 17870 ft | 337 kts | 149° |
| 2026-05-07 21:22 | 49.76868 | -2.93727 | 17623 ft | 338 kts | 149° |
| 2026-05-07 21:22 | 49.74878 | -2.91709 | 17370 ft | 336 kts | 149° |
| 2026-05-07 21:22 | 49.72929 | -2.89735 | 17118 ft | 335 kts | 149° |
| 2026-05-07 21:22 | 49.71011 | -2.87796 | 16868 ft | 333 kts | 149° |
| 2026-05-07 21:23 | 49.69076 | -2.85840 | 16574 ft | 333 kts | 149° |
| 2026-05-07 21:23 | 49.67125 | -2.83873 | 16143 ft | 336 kts | 149° |
| 2026-05-07 21:23 | 49.65147 | -2.81935 | 15718 ft | 336 kts | 154° |
| 2026-05-07 21:23 | 49.62971 | -2.80729 | 15296 ft | 330 kts | 167° |
| 2026-05-07 21:24 | 49.60742 | -2.79961 | 14869 ft | 326 kts | 173° |
| 2026-05-07 21:24 | 49.58492 | -2.79675 | 14446 ft | 323 kts | 179° |
| 2026-05-07 21:24 | 49.56252 | -2.79555 | 14020 ft | 320 kts | 180° |
| 2026-05-07 21:24 | 49.54053 | -2.79463 | 13589 ft | 311 kts | 180° |
| 2026-05-07 21:25 | 49.51923 | -2.79378 | 13153 ft | 301 kts | 180° |
| 2026-05-07 21:25 | 49.49850 | -2.79298 | 12720 ft | 295 kts | 180° |
| 2026-05-07 21:25 | 49.47804 | -2.79220 | 12297 ft | 293 kts | 180° |
| 2026-05-07 21:25 | 49.45769 | -2.79143 | 11874 ft | 292 kts | 180° |
| 2026-05-07 21:26 | 49.43741 | -2.79067 | 11450 ft | 291 kts | 180° |
| 2026-05-07 21:26 | 49.41720 | -2.78997 | 11026 ft | 290 kts | 180° |
| 2026-05-07 21:26 | 49.39703 | -2.78935 | 10602 ft | 290 kts | 180° |
| 2026-05-07 21:26 | 49.37690 | -2.78883 | 10178 ft | 289 kts | 180° |
| 2026-05-07 21:27 | 49.35677 | -2.78842 | 9754 ft | 289 kts | 180° |
| 2026-05-07 21:27 | 49.33666 | -2.78810 | 9329 ft | 289 kts | 180° |
| 2026-05-07 21:27 | 49.31657 | -2.78790 | 8906 ft | 289 kts | 180° |
| 2026-05-07 21:27 | 49.29648 | -2.78780 | 8482 ft | 289 kts | 180° |
| 2026-05-07 21:28 | 49.27642 | -2.78779 | 8060 ft | 288 kts | 180° |
| 2026-05-07 21:28 | 49.25637 | -2.78783 | 7637 ft | 288 kts | 180° |
| 2026-05-07 21:28 | 49.23649 | -2.78792 | 7208 ft | 283 kts | 180° |
| 2026-05-07 21:28 | 49.21698 | -2.78806 | 6774 ft | 278 kts | 180° |
| 2026-05-07 21:29 | 49.19773 | -2.78825 | 6350 ft | 275 kts | 180° |
| 2026-05-07 21:29 | 49.17865 | -2.78849 | 5927 ft | 273 kts | 180° |
| 2026-05-07 21:29 | 49.15974 | -2.78880 | 5506 ft | 271 kts | 180° |
| 2026-05-07 21:29 | 49.14094 | -2.78919 | 5081 ft | 269 kts | 180° |
| 2026-05-07 21:30 | 49.12226 | -2.78968 | 4653 ft | 266 kts | 180° |
| 2026-05-07 21:30 | 49.10435 | -2.79454 | 4208 ft | 262 kts | 203° |
| 2026-05-07 21:30 | 49.09077 | -2.81128 | 4037 ft | 252 kts | 233° |
| 2026-05-07 21:30 | 49.08473 | -2.83594 | 3992 ft | 246 kts | 265° |
| 2026-05-07 21:31 | 49.08774 | -2.86092 | 4006 ft | 248 kts | 296° |
| 2026-05-07 21:31 | 49.09895 | -2.88086 | 4003 ft | 252 kts | 327° |
| 2026-05-07 21:31 | 49.11530 | -2.88977 | 3999 ft | 251 kts | 358° |
| 2026-05-07 21:31 | 49.13213 | -2.88509 | 4002 ft | 245 kts | 29° |
| 2026-05-07 21:32 | 49.14478 | -2.86843 | 4001 ft | 240 kts | 59° |
| 2026-05-07 21:32 | 49.15212 | -2.84573 | 4002 ft | 238 kts | 69° |
| 2026-05-07 21:32 | 49.15849 | -2.82229 | 3992 ft | 238 kts | 71° |
| 2026-05-07 21:32 | 49.16125 | -2.79765 | 4006 ft | 235 kts | 91° |
| 2026-05-07 21:33 | 49.16179 | -2.77289 | 3988 ft | 231 kts | 87° |
| 2026-05-07 21:33 | 49.16338 | -2.74839 | 4002 ft | 233 kts | 85° |
| 2026-05-07 21:33 | 49.16527 | -2.72361 | 4017 ft | 236 kts | 85° |
| 2026-05-07 21:33 | 49.16723 | -2.69871 | 4019 ft | 236 kts | 84° |
| 2026-05-07 21:34 | 49.16920 | -2.67380 | 4007 ft | 235 kts | 85° |
| 2026-05-07 21:34 | 49.17116 | -2.64910 | 3996 ft | 234 kts | 84° |
| 2026-05-07 21:34 | 49.17311 | -2.62453 | 3985 ft | 230 kts | 84° |
| 2026-05-07 21:34 | 49.17502 | -2.60048 | 3981 ft | 226 kts | 84° |
| 2026-05-07 21:35 | 49.17693 | -2.57664 | 3986 ft | 227 kts | 85° |
| 2026-05-07 21:35 | 49.17884 | -2.55266 | 4000 ft | 228 kts | 85° |
| 2026-05-07 21:35 | 49.18074 | -2.52863 | 3996 ft | 228 kts | 84° |
| 2026-05-07 21:35 | 49.18267 | -2.50454 | 3990 ft | 228 kts | 84° |
| 2026-05-07 21:36 | 49.18460 | -2.48078 | 3793 ft | 219 kts | 84° |
| 2026-05-07 21:36 | 49.18639 | -2.45890 | 3516 ft | 197 kts | 85° |
| 2026-05-07 21:36 | 49.18798 | -2.43919 | 3291 ft | 176 kts | 85° |
| 2026-05-07 21:36 | 49.18939 | -2.42166 | 3052 ft | 157 kts | 85° |
| 2026-05-07 21:37 | 49.19067 | -2.40587 | 2852 ft | 143 kts | 85° |
| 2026-05-07 21:37 | 49.19183 | -2.39161 | 2670 ft | 128 kts | 85° |
| 2026-05-07 21:37 | 49.19289 | -2.37842 | 2523 ft | 124 kts | 85° |
| 2026-05-07 21:37 | 49.19396 | -2.36539 | 2363 ft | 123 kts | 84° |
| 2026-05-07 21:38 | 49.19501 | -2.35244 | 2199 ft | 123 kts | 84° |
| 2026-05-07 21:38 | 49.19605 | -2.33979 | 2068 ft | 114 kts | 84° |
| 2026-05-07 21:38 | 49.19701 | -2.32794 | 1886 ft | 111 kts | 84° |
| 2026-05-07 21:38 | 49.19797 | -2.31613 | 1749 ft | 113 kts | 83° |
| 2026-05-07 21:39 | 49.19896 | -2.30422 | 1596 ft | 113 kts | 83° |
| 2026-05-07 21:39 | 49.19992 | -2.29240 | 1444 ft | 111 kts | 83° |
| 2026-05-07 21:39 | 49.20089 | -2.28070 | 1298 ft | 111 kts | 82° |
| 2026-05-07 21:39 | 49.20186 | -2.26901 | 1154 ft | 112 kts | 82° |
| 2026-05-07 21:40 | 49.20281 | -2.25726 | 1006 ft | 111 kts | 82° |
| 2026-05-07 21:40 | 49.20379 | -2.24563 | 858 ft | 110 kts | 82° |
| 2026-05-07 21:40 | 49.20477 | -2.23393 | 712 ft | 111 kts | 83° |
| 2026-05-07 21:40 | 49.20597 | -2.22238 | 577 ft | 111 kts | 81° |
| 2026-05-07 21:41 | 49.20679 | -2.21059 | 375 ft | 111 kts | 82° |
| 2026-05-07 21:41 | 49.20771 | -2.19941 | 285 ft | 96 kts | 86° |
| 2026-05-07 21:41 | 49.20833 | -2.19108 | 284 ft | 57 kts | 82° |
| 2026-05-07 21:41 | 49.20867 | -2.18735 | 282 ft | 13 kts | 82° |
| 2026-05-07 21:42 | 49.20876 | -2.18630 | 282 ft | 15 kts | 83° |
| 2026-05-07 21:42 | 49.20884 | -2.18462 | 280 ft | 14 kts | 97° |
| 2026-05-07 21:42 | 49.20844 | -2.18384 | 282 ft | 8 kts | 159° |
| 2026-05-07 21:42 | 49.20790 | -2.18395 | 287 ft | 8 kts | 209° |
| 2026-05-07 21:43 | 49.20751 | -2.18450 | 285 ft | 8 kts | 230° |
| 2026-05-07 21:43 | 49.20732 | -2.18523 | 283 ft | 7 kts | 262° |
| 2026-05-07 21:43 | 49.20725 | -2.18615 | 283 ft | 10 kts | 263° |
| 2026-05-07 21:43 | 49.20716 | -2.18736 | 283 ft | 12 kts | 263° |
| 2026-05-07 21:44 | 49.20705 | -2.18862 | 283 ft | 12 kts | 262° |
| 2026-05-07 21:44 | 49.20694 | -2.18987 | 283 ft | 12 kts | 262° |
| 2026-05-07 21:44 | 49.20684 | -2.19109 | 283 ft | 11 kts | 263° |
| 2026-05-07 21:44 | 49.20685 | -2.19228 | 283 ft | 11 kts | 281° |
| 2026-05-07 21:45 | 49.20704 | -2.19340 | 283 ft | 11 kts | 284° |
| 2026-05-07 21:45 | 49.20710 | -2.19416 | 283 ft | 11 kts | 270° |
| 2026-05-07 21:45 | 49.20699 | -2.19526 | 283 ft | 10 kts | 260° |
| 2026-05-07 21:45 | 49.20678 | -2.19623 | 283 ft | 8 kts | 235° |
| 2026-05-07 21:46 | 49.20640 | -2.19674 | 284 ft | 7 kts | 218° |
| 2026-05-07 21:46 | 49.20613 | -2.19737 | 283 ft | 7 kts | 237° |
| 2026-05-07 21:46 | 49.20595 | -2.19754 | 283 ft | 3 kts | 198° |
| 2026-05-07 21:46 | 49.20573 | -2.19756 | 283 ft | 2 kts | 177° |
| 2026-05-07 21:47 | 49.20566 | -2.19755 | 286 ft | 1 kts | 174° |
| 2026-05-07 21:47 | 49.20559 | -2.19754 | 283 ft | 0 kts | 173° |
| 2026-05-07 21:47 | 49.20558 | -2.19753 | 283 ft | 0 kts | 173° |